Time;durP1;ratioP1;P1;durP2;ratioP2;P2;SDS_P1;SDS_P2;PMS_P1;PMS_P2;Temp;Humidity;BMP_temperature;BMP_pressure;BME280_temperature;BME280_humidity;BME280_pressure;Samples;Min_cycle;Max_cycle;Signal;HPM_P1;HPM_P2
2023/01/15 00:01:25;;;;;;;2.95;0.75;;;22.30;37.80;;;;;;5030686;28;20041;-54
2023/01/15 00:03:52;;;;;;;2.25;0.60;;;22.30;37.80;;;;;;5030917;28;20025;-54
2023/01/15 00:06:19;;;;;;;2.38;0.80;;;22.30;37.70;;;;;;5032376;28;20448;-52
2023/01/15 00:08:45;;;;;;;2.47;0.70;;;22.30;37.70;;;;;;5029185;28;20021;-55
2023/01/15 00:11:11;;;;;;;2.95;0.90;;;22.20;37.60;;;;;;5031460;28;20468;-54
2023/01/15 00:13:37;;;;;;;1.42;0.57;;;22.30;37.70;;;;;;5028355;28;20154;-53
2023/01/15 00:16:09;;;;;;;2.22;0.80;;;22.20;37.60;;;;;;5015725;28;20065;-55
2023/01/15 00:18:35;;;;;;;2.13;0.80;;;22.20;37.60;;;;;;5029354;28;20049;-49
2023/01/15 00:21:10;;;;;;;3.65;1.10;;;22.20;37.60;;;;;;5030329;28;20104;-53
2023/01/15 00:29:06;;;;;;;2.10;0.90;;;22.20;37.60;;;;;;5027275;28;19913;-52
2023/01/15 00:31:34;;;;;;;3.00;1.13;;;22.10;37.50;;;;;;5029134;28;20469;-52
2023/01/15 00:34:00;;;;;;;2.95;0.90;;;22.10;37.60;;;;;;5019022;28;20111;-54
2023/01/15 00:36:26;;;;;;;1.05;0.57;;;22.10;37.60;;;;;;5029747;28;20044;-57
2023/01/15 00:38:52;;;;;;;2.38;0.57;;;22.10;37.60;;;;;;5031274;28;20021;-53
2023/01/15 00:41:18;;;;;;;3.15;0.93;;;22.10;37.60;;;;;;5017283;28;20025;-53
2023/01/15 00:43:44;;;;;;;3.35;0.80;;;22.00;37.50;;;;;;5030473;28;20459;-53
2023/01/15 00:46:12;;;;;;;2.15;0.80;;;22.00;37.50;;;;;;5028614;28;20064;-54
2023/01/15 00:48:38;;;;;;;3.15;0.80;;;22.00;37.50;;;;;;5001904;28;20030;-53
2023/01/15 00:51:05;;;;;;;2.92;0.73;;;22.00;37.50;;;;;;5029223;28;20040;-53
2023/01/15 00:53:31;;;;;;;1.92;0.60;;;22.00;37.60;;;;;;5031691;28;20021;-53
2023/01/15 00:55:57;;;;;;;2.97;0.77;;;22.00;37.50;;;;;;5013196;28;20026;-50
2023/01/15 00:58:23;;;;;;;2.13;0.88;;;22.00;37.60;;;;;;5031744;28;20040;-54
2023/01/15 01:00:57;;;;;;;2.88;0.88;;;22.00;37.50;;;;;;5021458;28;20041;-55
2023/01/15 01:03:23;;;;;;;2.67;0.75;;;22.00;37.50;;;;;;5018824;28;20025;-53
2023/01/15 01:05:49;;;;;;;1.25;0.57;;;22.00;37.50;;;;;;5030662;28;20381;-55
2023/01/15 01:08:15;;;;;;;5.00;0.70;;;22.00;37.50;;;;;;5020701;28;20061;-54
2023/01/15 01:10:41;;;;;;;2.53;0.75;;;21.90;37.40;;;;;;5014655;28;20388;-55
2023/01/15 01:13:08;;;;;;;2.35;0.80;;;22.00;37.40;;;;;;5027981;28;20075;-54
2023/01/15 01:15:35;;;;;;;3.45;0.70;;;21.90;37.40;;;;;;5029049;28;20334;-56
2023/01/15 01:18:01;;;;;;;1.88;0.80;;;21.90;37.40;;;;;;5029834;28;20135;-53
2023/01/15 01:20:27;;;;;;;2.42;0.88;;;21.90;37.40;;;;;;5028651;28;20029;-53
2023/01/15 01:22:53;;;;;;;2.45;0.70;;;21.90;37.40;;;;;;5028861;28;20037;-56
2023/01/15 01:25:19;;;;;;;2.80;0.82;;;21.90;37.30;;;;;;5028826;28;20433;-55
2023/01/15 01:27:46;;;;;;;2.08;0.93;;;21.90;37.30;;;;;;5014615;28;20045;-55
2023/01/15 01:30:13;;;;;;;2.10;0.70;;;21.90;37.20;;;;;;5028136;28;20026;-54
2023/01/15 01:32:42;;;;;;;2.10;0.90;;;21.80;37.20;;;;;;5014488;28;20039;-54
2023/01/15 01:35:08;;;;;;;3.35;0.98;;;21.90;37.20;;;;;;5028380;28;20025;-55
2023/01/15 01:37:34;;;;;;;2.47;0.68;;;21.80;37.10;;;;;;5029482;28;20714;-57
2023/01/15 01:40:00;;;;;;;2.40;0.73;;;21.90;37.10;;;;;;5031157;28;20038;-54
2023/01/15 01:42:25;;;;;;;2.13;0.88;;;21.80;37.00;;;;;;5027304;28;20070;-52
2023/01/15 01:44:51;;;;;;;4.45;1.23;;;21.80;37.00;;;;;;5018935;28;20068;-54
2023/01/15 01:47:21;;;;;;;1.52;0.60;;;21.80;36.90;;;;;;5015562;28;20532;-55
2023/01/15 01:49:55;;;;;;;1.58;0.57;;;21.80;36.90;;;;;;5028605;28;20033;-55
2023/01/15 01:52:27;;;;;;;2.97;0.80;;;21.80;36.80;;;;;;5029177;28;20338;-51
2023/01/15 01:54:54;;;;;;;1.90;0.70;;;21.80;36.80;;;;;;5031187;28;20033;-52
2023/01/15 01:57:22;;;;;;;2.80;1.05;;;21.80;36.80;;;;;;5015216;28;20169;-53
2023/01/15 01:59:48;;;;;;;2.42;0.80;;;21.70;36.80;;;;;;5033580;28;20025;-54
2023/01/15 02:02:19;;;;;;;1.88;0.60;;;21.80;36.80;;;;;;5015233;28;20112;-55
2023/01/15 02:04:45;;;;;;;3.22;0.98;;;21.80;36.80;;;;;;5026353;28;20054;-51
2023/01/15 02:07:12;;;;;;;3.47;1.13;;;21.80;36.80;;;;;;5017603;28;20045;-52
2023/01/15 02:09:38;;;;;;;3.13;0.98;;;21.80;36.80;;;;;;5027757;28;20026;-49
2023/01/15 02:12:38;;;;;;;2.75;0.95;;;21.70;36.70;;;;;;5017174;28;20025;-54
2023/01/15 02:15:17;;;;;;;3.63;1.02;;;21.70;36.70;;;;;;5029200;28;20033;-52
2023/01/15 02:17:53;;;;;;;2.88;0.80;;;21.70;36.60;;;;;;5011778;28;20054;-55
2023/01/15 02:20:34;;;;;;;2.22;0.80;;;21.70;36.60;;;;;;5016991;28;20053;-53
2023/01/15 02:23:36;;;;;;;3.55;1.10;;;21.70;36.50;;;;;;5030186;28;20033;-55
2023/01/15 02:26:40;;;;;;;2.33;0.80;;;21.70;36.50;;;;;;5010058;28;20030;-53
2023/01/15 02:29:12;;;;;;;1.92;0.70;;;21.60;36.40;;;;;;5029848;28;20029;-51
2023/01/15 02:31:42;;;;;;;4.50;0.98;;;21.60;36.40;;;;;;5013653;28;20501;-51
2023/01/15 02:34:24;;;;;;;1.85;0.60;;;21.60;37.00;;;;;;5031179;28;20022;-50
2023/01/15 02:37:16;;;;;;;2.85;0.80;;;21.60;36.40;;;;;;5031879;28;20032;-53
2023/01/15 02:39:44;;;;;;;3.05;1.10;;;21.60;36.40;;;;;;5019612;28;20029;-55
2023/01/15 02:42:13;;;;;;;3.25;0.98;;;21.60;36.30;;;;;;5018232;28;20041;-55
2023/01/15 02:44:49;;;;;;;3.35;1.20;;;21.60;36.40;;;;;;5021956;28;20030;-55
2023/01/15 02:47:20;;;;;;;1.75;0.63;;;21.60;36.30;;;;;;5016967;28;20124;-54
2023/01/15 02:49:48;;;;;;;2.05;0.88;;;21.60;36.40;;;;;;5020920;28;20448;-49
2023/01/15 02:52:31;;;;;;;2.72;0.77;;;21.60;36.30;;;;;;5007816;28;20034;-53
2023/01/15 02:55:07;;;;;;;2.35;0.98;;;21.60;36.30;;;;;;5036063;28;20256;-50
2023/01/15 02:57:43;;;;;;;3.70;0.95;;;21.50;36.20;;;;;;5040690;28;20037;-54
2023/01/15 03:00:12;;;;;;;3.13;0.95;;;21.50;36.30;;;;;;5016770;28;20029;-54
2023/01/15 03:02:45;;;;;;;3.20;0.90;;;21.50;36.20;;;;;;5020463;28;20025;-54
2023/01/15 03:05:20;;;;;;;1.52;0.70;;;21.50;36.20;;;;;;5017404;28;20030;-54
2023/01/15 03:07:53;;;;;;;2.13;0.60;;;21.50;36.20;;;;;;5016959;28;20048;-49
2023/01/15 03:10:48;;;;;;;1.92;0.60;;;21.50;36.20;;;;;;5038292;28;20068;-53
2023/01/15 03:13:30;;;;;;;3.30;1.00;;;21.50;36.70;;;;;;5015015;28;20048;-55
2023/01/15 03:19:27;;;;;;;3.38;1.00;;;21.50;36.10;;;;;;5015895;28;20140;-51
2023/01/15 03:22:08;;;;;;;2.72;0.80;;;21.50;36.10;;;;;;5020486;28;20481;-53
2023/01/15 03:24:49;;;;;;;3.15;1.00;;;21.50;36.10;;;;;;5018850;28;20041;-51
2023/01/15 03:27:18;;;;;;;1.88;0.65;;;21.50;36.10;;;;;;5004560;28;20041;-52
2023/01/15 03:29:52;;;;;;;2.17;0.85;;;21.40;36.00;;;;;;5020022;28;20104;-54
2023/01/15 03:32:20;;;;;;;2.28;0.85;;;21.40;36.00;;;;;;5018780;28;20026;-52
2023/01/15 03:34:51;;;;;;;2.60;0.93;;;21.40;36.00;;;;;;5032424;28;20117;-52
2023/01/15 03:37:21;;;;;;;2.50;0.80;;;21.40;36.00;;;;;;5020054;28;20443;-50
2023/01/15 03:39:48;;;;;;;2.13;0.80;;;21.40;36.00;;;;;;5022057;28;20092;-52
2023/01/15 03:43:39;;;;;;;1.33;0.50;;;21.40;36.00;;;;;;5034032;28;20033;-51
2023/01/15 03:45:42;;;;;;;2.60;0.68;;;21.40;36.00;;;;;;5020602;28;20487;-51
2023/01/15 03:48:33;;;;;;;2.50;0.93;;;21.40;35.90;;;;;;5013284;28;20363;-52
2023/01/15 03:51:16;;;;;;;2.35;0.85;;;21.40;35.90;;;;;;5032567;28;20037;-50
2023/01/15 03:53:49;;;;;;;2.30;0.68;;;21.40;35.90;;;;;;5018141;28;20018;-49
2023/01/15 03:56:36;;;;;;;2.53;0.82;;;21.40;35.90;;;;;;5020561;28;20025;-51
2023/01/15 03:59:15;;;;;;;3.42;0.90;;;21.30;35.80;;;;;;5037307;28;20052;-51
2023/01/15 04:01:51;;;;;;;2.15;0.70;;;21.30;35.80;;;;;;5017879;28;20037;-55
2023/01/15 04:04:22;;;;;;;2.65;0.90;;;21.30;35.80;;;;;;5014215;28;20029;-53
2023/01/15 04:06:48;;;;;;;3.22;0.70;;;21.30;35.80;;;;;;5014560;28;20042;-52
2023/01/15 04:09:15;;;;;;;2.60;0.85;;;21.30;35.70;;;;;;5016571;28;20052;-51
2023/01/15 04:11:42;;;;;;;3.03;0.98;;;21.30;35.70;;;;;;5013293;28;20041;-51
2023/01/15 04:14:12;;;;;;;2.45;0.80;;;21.30;35.70;;;;;;5022920;28;20036;-55
2023/01/15 04:16:43;;;;;;;2.08;0.70;;;21.30;35.70;;;;;;5018894;28;20021;-49
2023/01/15 04:19:11;;;;;;;1.45;0.75;;;21.30;35.70;;;;;;5021436;28;20053;-54
2023/01/15 04:21:42;;;;;;;2.25;0.75;;;21.30;36.30;;;;;;5018411;28;20033;-51
2023/01/15 04:24:08;;;;;;;4.30;0.70;;;21.30;35.70;;;;;;5030378;28;20032;-54
2023/01/15 04:26:34;;;;;;;1.92;0.70;;;21.30;35.70;;;;;;5032055;28;20484;-53
2023/01/15 04:28:59;;;;;;;2.72;0.80;;;21.30;35.60;;;;;;5030315;28;20017;-55
2023/01/15 04:31:26;;;;;;;2.60;0.90;;;21.30;35.70;;;;;;5031660;28;20095;-51
2023/01/15 04:33:52;;;;;;;3.47;1.00;;;21.20;35.60;;;;;;5029789;28;20052;-50
2023/01/15 04:36:18;;;;;;;1.50;0.50;;;21.20;35.60;;;;;;5029382;28;20025;-51
2023/01/15 04:38:44;;;;;;;3.45;0.70;;;21.30;35.60;;;;;;5021378;28;20095;-51
2023/01/15 04:44:07;;;;;;;3.45;0.70;;;21.30;35.60;;;;;;5027388;28;20030;-56
2023/01/15 04:46:37;;;;;;;4.10;0.80;;;21.20;35.50;;;;;;5031100;28;20037;-53
2023/01/15 04:49:04;;;;;;;3.58;0.70;;;21.20;35.50;;;;;;5027831;28;20042;-51
2023/01/15 04:51:30;;;;;;;2.05;0.88;;;21.20;35.50;;;;;;5031433;28;20040;-54
2023/01/15 04:53:56;;;;;;;2.72;0.77;;;21.20;35.50;;;;;;5030829;28;20029;-54
2023/01/15 04:56:22;;;;;;;3.47;1.30;;;21.20;35.50;;;;;;5031697;28;20044;-57
2023/01/15 04:58:48;;;;;;;1.52;0.77;;;21.20;35.40;;;;;;5016645;28;20041;-55
2023/01/15 05:01:16;;;;;;;2.85;1.00;;;21.20;35.40;;;;;;5030360;28;20124;-54
2023/01/15 05:03:42;;;;;;;2.42;0.90;;;21.20;35.40;;;;;;5029278;28;20026;-55
2023/01/15 05:06:09;;;;;;;2.60;0.95;;;21.20;35.40;;;;;;5031101;28;20503;-54
2023/01/15 05:08:35;;;;;;;2.88;0.85;;;21.20;35.40;;;;;;5030497;28;20043;-55
2023/01/15 05:11:03;;;;;;;4.05;1.13;;;21.10;35.30;;;;;;5029096;28;20091;-53
2023/01/15 05:13:32;;;;;;;4.00;1.05;;;21.10;35.30;;;;;;5028402;28;20120;-52
2023/01/15 05:16:23;;;;;;;2.03;1.02;;;21.10;35.30;;;;;;5031007;28;20032;-54
2023/01/15 05:18:50;;;;;;;1.85;0.80;;;21.10;35.30;;;;;;5018173;28;20118;-50
2023/01/15 05:21:30;;;;;;;3.30;0.80;;;21.10;35.30;;;;;;5028419;28;20025;-54
2023/01/15 05:23:57;;;;;;;2.63;0.82;;;21.10;35.20;;;;;;5029645;28;20044;-50
2023/01/15 05:26:24;;;;;;;4.72;1.42;;;21.10;35.20;;;;;;5029222;28;20064;-53
2023/01/15 05:28:53;;;;;;;4.13;0.98;;;21.10;35.20;;;;;;5029176;28;20033;-51
2023/01/15 05:31:20;;;;;;;2.83;0.80;;;21.10;35.20;;;;;;5030237;28;20071;-50
2023/01/15 05:33:47;;;;;;;2.38;0.73;;;21.10;35.20;;;;;;5029991;28;20408;-55
2023/01/15 05:36:18;;;;;;;3.05;1.00;;;21.10;35.20;;;;;;5027421;28;20348;-53
2023/01/15 05:38:44;;;;;;;2.88;0.73;;;21.10;35.20;;;;;;5030329;28;20079;-51
2023/01/15 05:44:09;;;;;;;4.35;1.13;;;21.00;35.10;;;;;;5028857;28;20025;-49
2023/01/15 05:46:37;;;;;;;3.95;0.77;;;21.00;35.10;;;;;;5027557;28;20183;-52
2023/01/15 05:49:06;;;;;;;2.38;0.90;;;21.00;35.70;;;;;;5030557;28;20101;-55
2023/01/15 05:51:34;;;;;;;2.70;1.08;;;21.00;35.10;;;;;;5028959;28;20048;-53
2023/01/15 05:54:00;;;;;;;3.67;1.02;;;21.00;35.10;;;;;;5028947;28;20440;-51
2023/01/15 05:56:26;;;;;;;2.63;0.90;;;21.00;35.00;;;;;;5027748;28;20037;-54
2023/01/15 05:58:52;;;;;;;2.22;0.85;;;21.00;35.00;;;;;;5028714;28;20039;-53
2023/01/15 06:01:19;;;;;;;2.58;0.80;;;21.00;35.00;;;;;;5027733;28;20026;-50
2023/01/15 06:03:46;;;;;;;4.22;0.80;;;21.00;35.00;;;;;;5030437;28;20033;-52
2023/01/15 06:06:13;;;;;;;2.53;0.70;;;21.00;35.00;;;;;;5030192;28;20033;-53
2023/01/15 06:08:39;;;;;;;2.33;0.80;;;21.00;35.00;;;;;;5028131;28;20404;-53
2023/01/15 06:11:09;;;;;;;2.83;0.70;;;21.00;35.00;;;;;;5033070;28;20475;-54
2023/01/15 06:13:36;;;;;;;2.25;0.63;;;21.00;35.00;;;;;;5031789;28;20034;-52
2023/01/15 06:16:02;;;;;;;2.58;0.82;;;20.90;35.50;;;;;;5031466;28;20021;-54
2023/01/15 06:18:28;;;;;;;3.40;0.90;;;20.90;34.90;;;;;;5031056;28;20045;-52
2023/01/15 06:20:54;;;;;;;2.80;1.33;;;21.00;34.90;;;;;;5029431;28;20041;-51
2023/01/15 06:23:20;;;;;;;2.85;1.10;;;20.90;34.80;;;;;;5032918;28;20026;-52
2023/01/15 06:25:46;;;;;;;3.03;0.80;;;20.90;34.70;;;;;;5032195;28;20453;-51
2023/01/15 06:28:12;;;;;;;3.53;0.80;;;20.90;34.70;;;;;;5023958;28;20037;-52
2023/01/15 06:30:39;;;;;;;3.30;1.13;;;20.90;34.70;;;;;;5030907;28;20156;-52
2023/01/15 06:33:06;;;;;;;3.33;1.05;;;20.90;34.70;;;;;;5030499;28;20362;-53
2023/01/15 06:35:32;;;;;;;2.38;1.17;;;20.90;34.70;;;;;;5033286;28;20471;-49
2023/01/15 06:37:58;;;;;;;2.42;0.77;;;20.90;34.60;;;;;;5034593;28;20021;-55
2023/01/15 06:40:25;;;;;;;2.80;0.80;;;20.90;34.60;;;;;;5030680;28;20045;-53
2023/01/15 06:48:25;;;;;;;1.70;0.68;;;20.90;34.60;;;;;;5031927;28;20041;-54
2023/01/15 06:50:52;;;;;;;3.80;0.77;;;20.90;34.60;;;;;;5031387;28;20037;-53
2023/01/15 06:53:19;;;;;;;3.05;0.90;;;20.80;34.50;;;;;;5027673;28;20091;-52
2023/01/15 06:55:47;;;;;;;2.65;0.80;;;20.90;34.60;;;;;;5030431;28;20025;-54
2023/01/15 06:58:13;;;;;;;2.17;0.70;;;20.80;34.50;;;;;;5033262;28;20525;-51
2023/01/15 07:00:42;;;;;;;2.35;0.80;;;20.80;34.40;;;;;;5030580;28;20116;-53
2023/01/15 07:03:07;;;;;;;3.22;0.93;;;20.80;34.40;;;;;;5032516;28;20038;-54
2023/01/15 07:05:33;;;;;;;4.13;0.70;;;20.80;34.40;;;;;;5021746;28;20033;-52
2023/01/15 07:07:59;;;;;;;1.63;0.65;;;20.80;34.40;;;;;;5033083;28;20044;-48
2023/01/15 07:10:25;;;;;;;2.78;0.80;;;20.80;34.40;;;;;;5028392;28;20022;-50
2023/01/15 07:12:51;;;;;;;1.52;0.68;;;20.80;34.40;;;;;;5033050;28;20048;-51
2023/01/15 07:15:17;;;;;;;1.98;0.60;;;20.80;34.50;;;;;;5030433;28;20029;-53
2023/01/15 07:17:42;;;;;;;3.35;0.95;;;20.80;34.50;;;;;;5032610;28;20037;-55
2023/01/15 07:20:09;;;;;;;2.38;0.65;;;20.70;34.40;;;;;;5030243;28;20112;-51
2023/01/15 07:22:35;;;;;;;3.13;0.95;;;20.80;34.40;;;;;;5031120;28;20029;-52
2023/01/15 07:25:01;;;;;;;2.13;0.70;;;20.80;34.40;;;;;;5032090;28;20098;-54
2023/01/15 07:27:26;;;;;;;2.20;0.70;;;20.80;34.40;;;;;;5032008;28;20033;-53
2023/01/15 07:29:52;;;;;;;2.90;0.90;;;20.80;34.60;;;;;;5033234;28;20021;-50
2023/01/15 07:32:18;;;;;;;4.30;1.05;;;20.80;34.50;;;;;;5031842;28;20345;-49
2023/01/15 07:34:44;;;;;;;3.70;0.95;;;20.70;34.40;;;;;;5033651;28;20029;-49
2023/01/15 07:37:10;;;;;;;2.97;0.85;;;20.70;34.40;;;;;;5030140;28;20036;-53
2023/01/15 07:39:36;;;;;;;2.50;0.82;;;20.70;34.50;;;;;;5030905;28;20514;-54
2023/01/15 07:50:20;;;;;;;2.42;0.77;;;20.70;34.50;;;;;;5028663;28;20116;-51
2023/01/15 07:52:46;;;;;;;3.10;1.00;;;20.70;34.40;;;;;;5023393;28;20117;-51
2023/01/15 07:55:12;;;;;;;5.20;1.35;;;20.70;34.40;;;;;;5022541;28;20123;-54
2023/01/15 07:57:40;;;;;;;5.38;1.30;;;20.70;34.60;;;;;;5026130;28;20037;-52
2023/01/15 08:00:10;;;;;;;5.90;1.17;;;20.70;34.90;;;;;;5025086;28;20380;-50
2023/01/15 08:02:40;;;;;;;3.47;1.25;;;20.70;35.10;;;;;;5018002;28;20057;-53
2023/01/15 08:05:07;;;;;;;4.22;1.30;;;20.70;35.20;;;;;;5022341;28;20109;-50
2023/01/15 08:07:40;;;;;;;3.85;1.10;;;20.80;35.40;;;;;;5022181;28;20067;-52
2023/01/15 08:10:07;;;;;;;5.78;1.20;;;20.80;35.40;;;;;;5024971;28;20453;-54
2023/01/15 08:15:17;;;;;;;4.03;1.13;;;20.90;35.60;;;;;;5026947;28;20053;-52
2023/01/15 08:17:46;;;;;;;5.15;1.40;;;20.90;35.50;;;;;;5022011;28;20127;-53
2023/01/15 08:20:18;;;;;;;3.67;1.20;;;21.00;35.50;;;;;;5025043;28;20029;-51
2023/01/15 08:22:46;;;;;;;4.35;1.42;;;21.00;35.50;;;;;;5025653;28;20033;-60
2023/01/15 08:25:17;;;;;;;4.97;1.55;;;21.00;35.40;;;;;;5031086;28;20352;-55
2023/01/15 08:27:43;;;;;;;6.18;1.48;;;21.10;35.50;;;;;;5034466;28;20092;-54
2023/01/15 08:30:15;;;;;;;4.95;1.30;;;21.10;35.50;;;;;;5034892;28;20039;-50
2023/01/15 08:32:41;;;;;;;3.58;1.20;;;21.20;35.50;;;;;;5033169;28;20107;-53
2023/01/15 08:35:08;;;;;;;4.25;1.00;;;21.20;35.50;;;;;;5034919;28;20064;-53
2023/01/15 08:37:34;;;;;;;6.05;1.27;;;21.30;35.50;;;;;;5034851;28;20441;-57
2023/01/15 08:40:00;;;;;;;4.70;1.50;;;21.30;35.40;;;;;;5034041;28;20026;-56
2023/01/15 08:42:26;;;;;;;3.13;1.15;;;21.40;35.40;;;;;;5034264;28;20040;-52
2023/01/15 08:44:51;;;;;;;3.45;1.13;;;21.50;35.40;;;;;;5034717;28;20026;-55
2023/01/15 08:47:17;;;;;;;4.63;1.30;;;21.50;35.30;;;;;;5033211;28;20473;-56
2023/01/15 08:49:46;;;;;;;3.00;0.93;;;21.50;35.30;;;;;;5033960;28;20034;-50
2023/01/15 08:52:12;;;;;;;3.90;1.08;;;21.60;35.20;;;;;;5016986;28;20124;-55
2023/01/15 08:54:38;;;;;;;4.28;1.10;;;21.60;35.70;;;;;;5034151;28;20025;-57
2023/01/15 08:57:04;;;;;;;4.38;1.17;;;21.70;35.00;;;;;;5020042;28;20087;-51
2023/01/15 08:59:34;;;;;;;4.18;1.40;;;21.80;34.90;;;;;;5036343;28;20106;-57
2023/01/15 09:02:01;;;;;;;3.15;1.15;;;21.80;34.90;;;;;;5016131;28;20045;-55
2023/01/15 09:04:27;;;;;;;4.43;0.93;;;21.80;34.70;;;;;;5030445;28;20029;-52
2023/01/15 09:06:53;;;;;;;3.88;1.10;;;21.90;34.70;;;;;;5034271;28;20029;-54
2023/01/15 09:09:19;;;;;;;3.08;0.90;;;22.00;34.60;;;;;;5033055;28;20031;-53
2023/01/15 09:11:45;;;;;;;2.83;1.00;;;22.00;34.50;;;;;;5025850;28;20099;-56
2023/01/15 09:14:13;;;;;;;2.38;0.77;;;22.10;34.40;;;;;;5033931;28;20033;-55
2023/01/15 09:16:39;;;;;;;2.55;1.00;;;22.10;34.20;;;;;;5037077;28;20041;-54
2023/01/15 09:19:06;;;;;;;2.90;1.00;;;22.20;34.10;;;;;;5023673;28;20053;-55
2023/01/15 09:21:33;;;;;;;2.75;0.95;;;22.20;34.00;;;;;;5033846;28;20084;-52
2023/01/15 09:23:59;;;;;;;3.00;1.20;;;22.20;33.90;;;;;;5041713;28;20112;-56
2023/01/15 09:26:33;;;;;;;3.03;1.08;;;22.30;33.80;;;;;;5055022;28;20093;-54
2023/01/15 09:28:59;;;;;;;2.45;1.00;;;22.30;33.70;;;;;;5036457;28;20026;-55
2023/01/15 09:31:26;;;;;;;4.63;0.95;;;22.30;33.70;;;;;;5034476;28;20331;-57
2023/01/15 09:33:52;;;;;;;2.55;0.90;;;22.30;33.60;;;;;;5033505;28;20113;-55
2023/01/15 09:36:29;;;;;;;2.28;0.77;;;22.40;33.50;;;;;;5022456;28;20163;-53
2023/01/15 09:38:56;;;;;;;1.55;0.60;;;22.40;33.40;;;;;;5030905;28;20025;-56
2023/01/15 09:44:47;;;;;;;3.10;0.98;;;22.50;33.30;;;;;;5022789;28;20057;-55
2023/01/15 09:47:47;;;;;;;3.53;1.00;;;22.50;33.10;;;;;;4987270;28;20128;-54
2023/01/15 09:50:30;;;;;;;3.80;1.10;;;22.50;33.00;;;;;;5038628;28;20067;-55
2023/01/15 09:53:17;;;;;;;2.53;0.87;;;22.50;33.00;;;;;;5041188;28;20531;-50
2023/01/15 09:55:49;;;;;;;2.22;0.80;;;22.60;33.00;;;;;;5040732;28;20039;-52
2023/01/15 09:58:18;;;;;;;2.60;0.75;;;22.60;33.60;;;;;;5044102;28;20036;-49
2023/01/15 10:00:51;;;;;;;1.75;1.00;;;22.60;33.00;;;;;;5040248;28;20318;-55
2023/01/15 10:03:26;;;;;;;2.40;0.88;;;22.60;33.00;;;;;;5035173;28;20125;-53
2023/01/15 10:06:11;;;;;;;3.45;0.80;;;22.60;33.00;;;;;;5018443;28;20356;-53
2023/01/15 10:08:45;;;;;;;2.20;0.90;;;22.60;33.00;;;;;;5030889;28;20033;-57
2023/01/15 10:11:14;;;;;;;1.80;0.67;;;22.60;33.10;;;;;;5033566;28;20116;-60
2023/01/15 10:13:51;;;;;;;3.85;0.88;;;22.60;33.20;;;;;;5022525;28;20029;-56
2023/01/15 10:16:30;;;;;;;2.28;0.80;;;22.60;33.30;;;;;;5031924;28;20036;-57
2023/01/15 10:18:57;;;;;;;2.63;1.02;;;22.70;33.40;;;;;;5019589;28;20140;-52
2023/01/15 10:21:59;;;;;;;3.50;1.17;;;22.60;33.30;;;;;;5024672;28;20048;-55
2023/01/15 10:24:37;;;;;;;3.47;1.40;;;22.70;33.40;;;;;;5032582;28;20116;-56
2023/01/15 10:27:21;;;;;;;5.18;1.95;;;22.70;33.50;;;;;;5030844;28;20033;-52
2023/01/15 10:30:07;;;;;;;5.30;1.83;;;22.70;33.90;;;;;;5032793;28;20025;-56
2023/01/15 10:32:52;;;;;;;4.35;1.60;;;22.70;34.10;;;;;;4993433;28;20056;-56
2023/01/15 10:35:27;;;;;;;4.28;1.80;;;22.70;34.10;;;;;;5032707;28;20044;-57
2023/01/15 10:38:20;;;;;;;4.55;1.58;;;22.70;34.20;;;;;;5032946;28;20087;-56
2023/01/15 10:41:08;;;;;;;6.18;2.00;;;22.70;34.10;;;;;;5031496;28;20412;-57
2023/01/15 10:44:13;;;;;;;7.00;2.33;;;22.70;34.40;;;;;;5024367;28;20036;-51
2023/01/15 10:46:42;;;;;;;5.85;2.35;;;22.70;34.70;;;;;;5030867;28;20045;-54
2023/01/15 10:49:16;;;;;;;6.57;2.38;;;22.70;35.20;;;;;;5023109;28;20026;-52
2023/01/15 10:51:55;;;;;;;5.20;2.45;;;22.70;35.50;;;;;;5032713;28;20103;-52
2023/01/15 10:54:45;;;;;;;14.65;4.75;;;22.70;35.80;;;;;;5033122;28;20037;-53
2023/01/15 10:57:16;;;;;;;10.32;4.68;;;22.70;36.40;;;;;;5035948;28;20037;-57
2023/01/15 10:59:59;;;;;;;8.52;3.88;;;22.70;36.90;;;;;;5036614;28;20033;-58
2023/01/15 11:02:46;;;;;;;9.10;3.50;;;22.70;36.80;;;;;;5022167;28;20475;-56
2023/01/15 11:05:18;;;;;;;8.82;3.55;;;22.70;36.60;;;;;;5035672;28;20029;-57
2023/01/15 11:07:50;;;;;;;8.02;3.38;;;22.70;36.80;;;;;;5027498;28;20109;-58
2023/01/15 11:10:20;;;;;;;7.78;3.63;;;22.70;37.30;;;;;;5029172;28;20033;-57
2023/01/15 11:21:22;;;;;;;10.38;3.50;;;22.70;38.10;;;;;;5026531;28;20124;-50
2023/01/15 11:23:49;;;;;;;7.57;3.33;;;22.70;37.70;;;;;;5022450;28;20218;-53
2023/01/15 11:26:28;;;;;;;6.07;2.50;;;22.70;37.20;;;;;;5021979;28;20075;-53
2023/01/15 11:28:56;;;;;;;5.97;2.45;;;22.70;36.80;;;;;;5012884;28;20048;-52
2023/01/15 11:31:21;;;;;;;5.47;2.60;;;22.70;36.40;;;;;;5025302;28;20029;-51
2023/01/15 11:33:59;;;;;;;4.88;2.58;;;22.60;36.00;;;;;;5026731;28;20040;-48
2023/01/15 11:36:28;;;;;;;5.90;2.05;;;22.60;35.70;;;;;;5030091;28;20330;-53
2023/01/15 11:38:55;;;;;;;5.47;2.20;;;22.60;35.40;;;;;;5032210;28;20025;-53
2023/01/15 11:52:59;;;;;;;4.68;1.73;;;22.50;34.50;;;;;;5023909;28;20044;-50
2023/01/15 11:55:27;;;;;;;4.05;1.42;;;22.50;34.40;;;;;;5024282;28;20437;-52
2023/01/15 11:57:54;;;;;;;4.25;1.63;;;22.50;34.20;;;;;;5026028;28;20513;-53
2023/01/15 12:00:25;;;;;;;4.07;1.63;;;22.50;34.10;;;;;;5024973;28;20515;-49
2023/01/15 12:02:58;;;;;;;3.90;1.70;;;22.50;34.00;;;;;;5028426;28;20037;-52
2023/01/15 12:05:28;;;;;;;3.53;1.55;;;22.40;33.90;;;;;;5018803;28;20088;-51
2023/01/15 12:07:57;;;;;;;4.28;1.60;;;22.40;33.90;;;;;;5023847;28;20045;-50
2023/01/15 12:11:02;;;;;;;4.30;1.42;;;22.40;33.90;;;;;;5026239;28;20040;-54
2023/01/15 12:13:45;;;;;;;5.07;1.70;;;22.40;33.90;;;;;;5020442;28;20032;-53
2023/01/15 12:16:26;;;;;;;2.90;1.08;;;22.40;33.90;;;;;;5018140;28;20092;-54
2023/01/15 12:18:57;;;;;;;4.35;1.38;;;22.40;33.90;;;;;;5018006;28;20045;-56
2023/01/15 12:21:22;;;;;;;7.60;2.33;;;22.30;34.50;;;;;;5022902;28;20018;-53
2023/01/15 12:24:13;;;;;;;3.47;1.27;;;22.30;33.90;;;;;;5018384;28;20026;-53
2023/01/15 12:27:04;;;;;;;5.45;1.17;;;22.30;33.80;;;;;;5022129;28;20045;-51
2023/01/15 12:29:47;;;;;;;3.05;1.25;;;22.30;33.80;;;;;;5021020;28;20598;-55
2023/01/15 12:32:18;;;;;;;5.20;1.15;;;22.30;33.80;;;;;;5027458;28;20349;-56
2023/01/15 12:35:33;;;;;;;3.63;1.20;;;22.30;33.70;;;;;;5018560;28;20483;-49
2023/01/15 12:38:17;;;;;;;3.50;1.02;;;22.30;33.70;;;;;;5018274;28;20033;-55
2023/01/15 12:40:59;;;;;;;5.93;1.20;;;22.30;33.70;;;;;;5021257;28;20116;-55
2023/01/15 12:46:18;;;;;;;2.40;0.80;;;22.30;33.70;;;;;;5021730;28;20030;-53
2023/01/15 12:49:13;;;;;;;2.42;0.93;;;22.20;33.70;;;;;;5022686;28;20506;-51
2023/01/15 12:51:56;;;;;;;3.63;1.00;;;22.20;33.70;;;;;;5025294;28;20057;-51
2023/01/15 12:54:32;;;;;;;6.70;1.52;;;22.20;33.70;;;;;;5018315;28;20037;-53
2023/01/15 12:57:16;;;;;;;1.98;0.93;;;22.20;33.80;;;;;;5022613;28;20925;-53
2023/01/15 13:00:08;;;;;;;3.95;1.27;;;22.20;33.80;;;;;;5017329;28;20017;-55
2023/01/15 13:02:56;;;;;;;3.70;1.17;;;22.20;33.90;;;;;;4994723;28;20033;-54
2023/01/15 13:05:30;;;;;;;2.40;0.98;;;22.20;33.90;;;;;;5022230;28;20018;-54
2023/01/15 13:07:59;;;;;;;3.03;0.90;;;22.20;33.90;;;;;;5015210;28;20046;-52
2023/01/15 13:10:33;;;;;;;3.40;0.90;;;22.20;34.00;;;;;;5017031;28;20087;-50
2023/01/15 13:13:10;;;;;;;2.17;0.80;;;22.20;34.10;;;;;;5023569;28;20352;-52
2023/01/15 13:16:00;;;;;;;1.40;0.88;;;22.20;34.40;;;;;;5021140;28;20072;-54
2023/01/15 13:18:51;;;;;;;2.00;0.90;;;22.20;34.60;;;;;;5006073;28;20072;-51
2023/01/15 13:21:22;;;;;;;1.92;0.90;;;22.20;34.80;;;;;;5016925;28;20041;-50
2023/01/15 13:23:51;;;;;;;3.78;0.98;;;22.20;34.80;;;;;;5024265;28;20473;-51
2023/01/15 13:26:26;;;;;;;2.88;0.90;;;22.20;34.90;;;;;;5025978;28;20036;-47
2023/01/15 13:28:58;;;;;;;2.90;0.98;;;22.20;34.90;;;;;;5019699;28;20044;-52
2023/01/15 13:31:44;;;;;;;3.20;1.10;;;22.20;35.50;;;;;;5026663;28;20089;-46
2023/01/15 13:34:40;;;;;;;1.75;0.70;;;22.30;34.80;;;;;;5018967;28;20057;-50
2023/01/15 13:37:39;;;;;;;2.03;0.63;;;22.30;34.70;;;;;;5020916;28;20030;-48
2023/01/15 13:40:27;;;;;;;1.80;0.80;;;22.30;34.60;;;;;;5024800;28;20040;-52
2023/01/15 13:42:53;;;;;;;1.48;0.75;;;22.30;34.50;;;;;;5019376;28;20056;-55
2023/01/15 13:45:26;;;;;;;2.17;1.00;;;22.30;34.50;;;;;;5023779;28;20141;-49
2023/01/15 13:48:01;;;;;;;3.50;0.90;;;22.30;34.60;;;;;;5021483;28;20369;-50
2023/01/15 13:50:30;;;;;;;2.30;0.90;;;22.30;34.60;;;;;;5026265;28;20437;-48
2023/01/15 13:53:25;;;;;;;2.40;0.95;;;22.40;34.60;;;;;;5026235;28;20041;-47
2023/01/15 13:56:11;;;;;;;1.98;0.80;;;22.40;34.50;;;;;;5022381;28;20404;-50
2023/01/15 13:58:41;;;;;;;2.38;0.80;;;22.40;34.40;;;;;;5018188;28;20025;-53
2023/01/15 14:01:21;;;;;;;4.25;0.73;;;22.40;34.30;;;;;;5021671;28;20430;-48
2023/01/15 14:04:05;;;;;;;2.13;0.70;;;22.40;34.30;;;;;;5022508;28;20033;-49
2023/01/15 14:06:44;;;;;;;2.17;0.70;;;22.40;34.20;;;;;;5022008;28;20116;-52
2023/01/15 14:09:30;;;;;;;2.47;0.60;;;22.50;34.30;;;;;;5017953;28;20045;-49